createdAt,value
2022-08-23T00:02:29.892Z,23.49
2022-08-23T00:05:08.033Z,23.52
2022-08-23T00:07:39.763Z,23.48
2022-08-23T00:10:12.635Z,23.53
2022-08-23T00:12:43.809Z,23.50
2022-08-23T00:15:17.679Z,23.53
2022-08-23T00:17:46.873Z,23.55
2022-08-23T00:20:19.917Z,23.57
2022-08-23T00:22:49.202Z,23.56
2022-08-23T00:25:20.430Z,23.56
2022-08-23T00:27:51.118Z,23.58
2022-08-23T00:30:20.678Z,23.60
2022-08-23T00:32:51.728Z,23.57
2022-08-23T00:35:27.505Z,23.52
2022-08-23T00:38:32.903Z,23.57
2022-08-23T00:40:52.843Z,23.58
2022-08-23T00:43:47.921Z,23.60
2022-08-23T00:46:49.544Z,23.58
2022-08-23T00:49:19.742Z,23.50
2022-08-23T00:51:57.696Z,23.35
2022-08-23T00:54:29.989Z,23.41
2022-08-23T00:57:04.940Z,23.37
2022-08-23T00:59:35.895Z,23.36
2022-08-23T01:02:08.834Z,23.31
2022-08-23T01:04:44.574Z,23.38
2022-08-23T01:07:21.262Z,23.35
2022-08-23T01:09:54.150Z,23.32
2022-08-23T01:12:33.108Z,23.26
2022-08-23T01:15:12.742Z,23.25
2022-08-23T01:17:47.901Z,23.24
2022-08-23T01:20:21.504Z,23.24
2022-08-23T01:23:01.214Z,23.17
2022-08-23T01:25:35.106Z,23.13
2022-08-23T01:28:04.904Z,23.04
2022-08-23T01:30:36.565Z,22.95
2022-08-23T01:33:08.493Z,22.98
2022-08-23T01:35:44.434Z,22.86
2022-08-23T01:38:15.445Z,22.96
2022-08-23T01:40:47.436Z,22.92
2022-08-23T01:43:19.867Z,22.72
2022-08-23T01:45:52.684Z,22.76
2022-08-23T01:48:25.670Z,22.78
2022-08-23T01:50:55.089Z,22.74
2022-08-23T01:53:25.359Z,22.66
2022-08-23T01:55:56.130Z,22.61
2022-08-23T01:58:26.901Z,22.54
2022-08-23T02:00:56.469Z,22.44
2022-08-23T02:03:26.235Z,22.32
2022-08-23T02:05:55.565Z,22.28
2022-08-23T02:08:42.441Z,22.25
2022-08-23T02:11:16.290Z,22.18
2022-08-23T02:13:49.377Z,22.02
2022-08-23T02:16:25.591Z,21.97
2022-08-23T02:18:59.175Z,21.90
2022-08-23T02:21:31.544Z,21.85
2022-08-23T02:24:04.333Z,21.75
2022-08-23T02:26:37.014Z,21.67
2022-08-23T02:29:08.052Z,21.57
2022-08-23T02:31:37.916Z,21.59
2022-08-23T02:34:07.796Z,21.58
2022-08-23T02:36:38.848Z,21.65
2022-08-23T02:39:09.610Z,21.47
2022-08-23T02:41:41.294Z,21.40
2022-08-23T02:44:13.522Z,21.38
2022-08-23T02:46:44.113Z,21.48
2022-08-23T02:49:14.161Z,21.27
2022-08-23T02:51:44.088Z,21.43
2022-08-23T02:54:13.729Z,21.40
2022-08-23T02:56:44.280Z,21.38
2022-08-23T02:59:13.580Z,21.32
2022-08-23T03:01:42.902Z,21.27
2022-08-23T03:04:22.606Z,21.31
2022-08-23T03:06:51.891Z,21.22
2022-08-23T03:09:22.790Z,21.21
2022-08-23T03:11:53.474Z,21.16
2022-08-23T03:14:24.778Z,21.13
2022-08-23T03:16:54.465Z,21.07
2022-08-23T03:19:27.816Z,21.02
2022-08-23T03:21:57.284Z,20.96
2022-08-23T03:24:27.283Z,20.97
2022-08-23T03:26:57.990Z,20.84
2022-08-23T03:29:27.163Z,20.85
2022-08-23T03:32:05.303Z,20.78
2022-08-23T03:34:38.550Z,20.81
2022-08-23T03:37:10.520Z,20.78
2022-08-23T03:39:40.332Z,20.74
2022-08-23T03:42:12.145Z,20.65
2022-08-23T03:44:41.407Z,20.63
2022-08-23T03:47:10.760Z,20.63
2022-08-23T03:49:44.135Z,20.63
2022-08-23T03:52:13.466Z,20.63
2022-08-23T03:54:42.660Z,20.56
2022-08-23T03:57:15.832Z,20.56
2022-08-23T03:59:45.460Z,20.58
2022-08-23T04:02:14.798Z,20.61
2022-08-23T04:04:44.110Z,20.54
2022-08-23T04:07:32.026Z,20.60
2022-08-23T04:10:01.447Z,20.55
2022-08-23T04:12:38.374Z,20.52
2022-08-23T04:15:14.866Z,20.61
2022-08-23T04:17:44.539Z,20.58
2022-08-23T04:20:14.120Z,20.55
2022-08-23T04:22:54.712Z,20.48
2022-08-23T04:25:33.809Z,20.45
2022-08-23T04:28:06.877Z,20.49
2022-08-23T04:30:36.826Z,20.49
2022-08-23T04:33:11.283Z,20.50
2022-08-23T04:35:42.919Z,20.49
2022-08-23T04:38:24.518Z,20.45
2022-08-23T04:41:15.558Z,20.33
2022-08-23T04:43:49.008Z,20.38
2022-08-23T04:46:18.508Z,20.49
2022-08-23T04:48:50.098Z,20.44
2022-08-23T04:51:22.331Z,20.46
2022-08-23T04:53:52.310Z,20.48
2022-08-23T04:56:43.033Z,20.39
2022-08-23T04:59:15.591Z,20.36
2022-08-23T05:01:47.176Z,20.37
2022-08-23T05:04:16.821Z,20.30
2022-08-23T05:06:46.701Z,20.37
2022-08-23T05:09:20.338Z,20.31
2022-08-23T05:11:51.270Z,20.33
2022-08-23T05:14:22.538Z,20.31
2022-08-23T05:16:51.926Z,20.25
2022-08-23T05:19:21.094Z,20.29
2022-08-23T05:21:55.071Z,20.28
2022-08-23T05:24:30.001Z,20.19
2022-08-23T05:26:59.204Z,20.20
2022-08-23T05:29:30.286Z,20.15
2022-08-23T05:31:59.625Z,20.20
2022-08-23T05:34:29.172Z,20.27
2022-08-23T05:37:00.751Z,20.22
2022-08-23T05:39:36.882Z,20.26
2022-08-23T05:42:14.369Z,20.27
2022-08-23T05:44:51.236Z,20.30
2022-08-23T05:47:24.668Z,20.34
2022-08-23T05:50:13.564Z,20.42
2022-08-23T05:52:45.839Z,20.45
2022-08-23T05:55:17.637Z,20.45
2022-08-23T05:57:56.905Z,20.45
2022-08-23T06:00:38.108Z,20.33
2022-08-23T06:03:10.978Z,20.45
2022-08-23T06:05:42.249Z,20.35
2022-08-23T06:08:13.264Z,20.45
2022-08-23T06:10:42.808Z,20.54
2022-08-23T06:13:25.492Z,20.55
2022-08-23T06:15:57.500Z,20.61
2022-08-23T06:18:28.009Z,20.60
2022-08-23T06:21:08.354Z,20.63
2022-08-23T06:23:49.710Z,20.58
2022-08-23T06:26:22.842Z,20.70
2022-08-23T06:28:57.612Z,20.61
2022-08-23T06:31:49.037Z,20.63
2022-08-23T06:34:33.642Z,20.73
2022-08-23T06:37:12.905Z,20.65
2022-08-23T06:40:00.771Z,20.75
2022-08-23T06:42:50.412Z,20.82
2022-08-23T06:45:33.880Z,20.86
2022-08-23T06:48:11.085Z,20.90
2022-08-23T06:50:47.833Z,20.82
2022-08-23T06:53:41.779Z,20.97
2022-08-23T06:56:32.964Z,21.04
2022-08-23T06:59:12.553Z,21.18
2022-08-23T07:02:04.164Z,21.23
2022-08-23T07:04:54.251Z,21.35
2022-08-23T07:07:41.319Z,21.37
2022-08-23T07:10:16.812Z,21.45
2022-08-23T07:12:46.267Z,21.44
2022-08-23T07:15:15.944Z,21.44
2022-08-23T07:17:47.311Z,21.47
2022-08-23T07:20:18.264Z,21.44
2022-08-23T07:22:50.495Z,21.31
2022-08-23T07:25:22.116Z,21.43
2022-08-23T07:27:56.564Z,21.41
2022-08-23T07:30:26.071Z,21.45
2022-08-23T07:33:01.269Z,21.44
2022-08-23T07:35:38.178Z,21.53
2022-08-23T07:38:15.543Z,21.57
2022-08-23T07:40:53.929Z,21.59
2022-08-23T07:43:24.095Z,21.42
2022-08-23T07:45:54.452Z,21.48
2022-08-23T07:48:50.160Z,21.46
2022-08-23T07:51:22.111Z,21.37
2022-08-23T07:53:54.161Z,21.42
2022-08-23T07:56:25.185Z,21.37
2022-08-23T07:59:02.623Z,21.38
2022-08-23T08:01:54.821Z,21.36
2022-08-23T08:04:26.422Z,21.37
2022-08-23T08:07:17.743Z,21.42
2022-08-23T08:09:48.105Z,21.42
2022-08-23T08:12:19.029Z,21.42
2022-08-23T08:14:52.210Z,21.48
2022-08-23T08:17:27.494Z,21.66
2022-08-23T08:20:08.226Z,21.87
2022-08-23T08:22:58.488Z,22.01
2022-08-23T08:25:48.837Z,21.94
2022-08-23T08:28:20.888Z,22.00
2022-08-23T08:30:50.323Z,22.13
2022-08-23T08:33:19.506Z,22.24
2022-08-23T08:35:57.798Z,22.24
2022-08-23T08:38:31.836Z,22.31
2022-08-23T08:41:16.703Z,22.31
2022-08-23T08:44:04.581Z,22.22
2022-08-23T08:46:47.066Z,22.16
2022-08-23T08:49:26.544Z,22.33
2022-08-23T08:52:03.428Z,22.54
2022-08-23T08:54:34.477Z,22.72
2022-08-23T08:57:04.805Z,23.03
2022-08-23T08:59:53.282Z,23.51
2022-08-23T09:02:33.864Z,24.01
2022-08-23T09:05:13.016Z,24.33
2022-08-23T09:07:56.699Z,24.57
2022-08-23T09:10:59.071Z,24.68
2022-08-23T09:13:56.889Z,24.60
2022-08-23T09:16:40.821Z,24.69
2022-08-23T09:19:11.462Z,24.66
2022-08-23T09:21:47.692Z,24.45
2022-08-23T09:24:17.848Z,24.34
2022-08-23T09:26:59.220Z,24.17
2022-08-23T09:29:33.415Z,24.16
2022-08-23T09:32:06.665Z,24.19
2022-08-23T09:34:44.526Z,24.25
2022-08-23T09:37:22.290Z,24.25
2022-08-23T09:40:13.916Z,24.38
2022-08-23T09:42:45.107Z,24.62
2022-08-23T09:45:35.146Z,24.63
2022-08-23T09:48:08.304Z,24.71
2022-08-23T09:50:54.665Z,24.64
2022-08-23T09:53:28.302Z,24.71
2022-08-23T09:56:11.228Z,24.88
2022-08-23T09:58:47.019Z,24.93
2022-08-23T10:01:27.000Z,24.96
2022-08-23T10:04:14.602Z,24.71
2022-08-23T10:06:46.776Z,24.96
2022-08-23T10:09:25.875Z,25.05
2022-08-23T10:11:57.287Z,25.37
2022-08-23T10:14:33.836Z,25.71
2022-08-23T10:17:15.865Z,26.26
2022-08-23T10:19:54.785Z,26.76
2022-08-23T10:22:27.689Z,27.47
2022-08-23T10:25:27.561Z,27.54
2022-08-23T10:28:27.619Z,27.28
2022-08-23T10:31:04.905Z,27.07
2022-08-23T10:33:46.723Z,26.56
2022-08-23T10:36:24.145Z,26.30
2022-08-23T10:39:03.729Z,26.52
2022-08-23T10:41:52.327Z,26.96
2022-08-23T10:44:33.321Z,27.39
2022-08-23T10:47:19.805Z,27.28
2022-08-23T10:49:53.533Z,27.52
2022-08-23T10:52:34.475Z,27.91
2022-08-23T10:55:17.493Z,27.91
2022-08-23T10:57:49.839Z,26.97
2022-08-23T11:00:26.815Z,26.98
2022-08-23T11:03:10.199Z,26.48
2022-08-23T11:05:40.897Z,26.14
2022-08-23T11:08:36.764Z,25.50
2022-08-23T11:11:46.160Z,25.02
2022-08-23T11:14:34.619Z,24.78
2022-08-23T11:17:08.376Z,24.80
2022-08-23T11:19:56.066Z,24.87
2022-08-23T11:22:31.022Z,25.46
2022-08-23T11:25:04.131Z,25.99
2022-08-23T11:27:42.055Z,26.64
2022-08-23T11:30:50.114Z,27.35
2022-08-23T11:33:44.319Z,27.64
2022-08-23T11:36:23.343Z,27.66
2022-08-23T11:39:19.619Z,27.69
2022-08-23T11:42:07.136Z,28.07
2022-08-23T11:44:47.729Z,28.59
2022-08-23T11:47:28.774Z,28.92
2022-08-23T11:50:26.949Z,29.08
2022-08-23T11:53:32.429Z,28.90
2022-08-23T11:56:46.163Z,28.82
2022-08-23T11:59:41.791Z,28.25
2022-08-23T12:03:03.296Z,27.97
2022-08-23T12:06:09.474Z,28.10
2022-08-23T12:08:56.981Z,28.22
2022-08-23T12:11:27.308Z,28.01
2022-08-23T12:14:02.257Z,27.98
2022-08-23T12:16:37.888Z,28.22
2022-08-23T12:19:19.986Z,28.65
2022-08-23T12:21:53.380Z,29.07
2022-08-23T12:24:32.905Z,29.24
2022-08-23T12:27:15.328Z,29.57
2022-08-23T12:29:54.098Z,29.71
2022-08-23T12:32:34.112Z,30.02
2022-08-23T12:35:26.601Z,30.26
2022-08-23T12:38:05.671Z,30.41
2022-08-23T12:40:42.537Z,30.62
2022-08-23T12:43:22.787Z,30.70
2022-08-23T12:45:57.279Z,30.67
2022-08-23T12:48:30.406Z,30.68
2022-08-23T12:51:04.122Z,30.55
2022-08-23T12:53:41.381Z,30.87
2022-08-23T12:56:26.778Z,30.86
2022-08-23T12:59:06.907Z,30.58
2022-08-23T13:01:40.161Z,30.56
2022-08-23T13:04:13.678Z,30.66
2022-08-23T13:06:49.536Z,30.45
2022-08-23T13:09:24.517Z,30.50
2022-08-23T13:11:56.080Z,30.33
2022-08-23T13:14:34.562Z,30.02
2022-08-23T13:17:21.489Z,30.18
2022-08-23T13:19:56.288Z,30.74
2022-08-23T13:22:27.248Z,30.95
2022-08-23T13:28:02.581Z,30.75
2022-08-23T13:30:36.239Z,30.57
2022-08-23T13:33:25.119Z,30.81
2022-08-23T13:36:13.073Z,30.89
2022-08-23T13:38:44.444Z,31.17
2022-08-23T13:41:30.803Z,30.71
2022-08-23T13:44:08.111Z,30.44
2022-08-23T13:46:46.869Z,30.35
2022-08-23T13:49:21.435Z,30.47
2022-08-23T13:54:59.385Z,31.21
2022-08-23T13:57:30.286Z,31.16
2022-08-23T14:00:02.406Z,30.76
2022-08-23T14:02:39.744Z,30.73
2022-08-23T14:05:10.445Z,30.89
2022-08-23T14:07:39.996Z,31.10
2022-08-23T14:10:10.434Z,31.30
2022-08-23T14:12:40.129Z,31.38
2022-08-23T14:15:15.278Z,31.28
2022-08-23T14:17:48.360Z,30.84
2022-08-23T14:23:12.324Z,29.90
2022-08-23T14:25:42.125Z,29.68
2022-08-23T14:28:11.580Z,29.44
2022-08-23T14:30:42.194Z,29.30
2022-08-23T14:33:11.497Z,29.05
2022-08-23T14:35:40.729Z,28.74
2022-08-23T14:38:10.989Z,28.64
2022-08-23T14:40:40.308Z,28.66
2022-08-23T14:43:11.957Z,28.59
2022-08-23T14:45:43.008Z,28.34
2022-08-23T14:48:12.508Z,28.29
2022-08-23T14:50:42.414Z,28.10
2022-08-23T14:53:13.428Z,27.80
2022-08-23T14:55:42.999Z,27.85
2022-08-23T14:58:12.213Z,27.86
2022-08-23T15:00:45.057Z,27.74
2022-08-23T15:03:20.288Z,27.76
2022-08-23T15:05:49.712Z,27.87
2022-08-23T15:08:19.112Z,27.97
2022-08-23T15:10:50.439Z,28.20
2022-08-23T15:13:28.425Z,28.31
2022-08-23T15:16:02.115Z,28.28
2022-08-23T15:18:34.300Z,28.17
2022-08-23T15:21:03.906Z,28.03
2022-08-23T15:23:33.522Z,27.93
2022-08-23T15:26:02.767Z,27.74
2022-08-23T15:28:32.531Z,27.68
2022-08-23T15:31:03.256Z,27.57
2022-08-23T15:33:33.755Z,27.40
2022-08-23T15:36:03.565Z,27.68
2022-08-23T15:38:33.170Z,27.67
2022-08-23T15:41:02.519Z,27.74
2022-08-23T15:43:34.204Z,27.95
2022-08-23T15:46:09.515Z,27.98
2022-08-23T15:48:45.625Z,28.28
2022-08-23T15:51:15.515Z,28.37
2022-08-23T15:53:45.354Z,28.46
2022-08-23T15:56:19.796Z,28.48
2022-08-23T15:58:50.386Z,28.68
2022-08-23T16:01:24.622Z,28.58
2022-08-23T16:03:54.166Z,28.55
2022-08-23T16:06:23.597Z,28.31
2022-08-23T16:08:54.462Z,28.24
2022-08-23T16:11:24.307Z,28.24
2022-08-23T16:13:55.835Z,28.28
2022-08-23T16:16:31.073Z,28.42
2022-08-23T16:19:02.090Z,28.55
2022-08-23T16:21:35.922Z,28.29
2022-08-23T16:24:07.175Z,28.67
2022-08-23T16:26:45.417Z,28.81
2022-08-23T16:29:18.275Z,28.84
2022-08-23T16:31:49.613Z,28.85
2022-08-23T16:34:21.415Z,28.87
2022-08-23T16:36:56.517Z,28.81
2022-08-23T16:39:27.938Z,28.60
2022-08-23T16:41:57.296Z,28.56
2022-08-23T16:44:26.469Z,28.24
2022-08-23T16:46:58.094Z,27.97
2022-08-23T16:49:27.281Z,27.88
2022-08-23T16:51:56.876Z,27.83
2022-08-23T16:54:26.496Z,27.84
2022-08-23T16:56:56.795Z,27.76
2022-08-23T16:59:26.237Z,27.67
2022-08-23T17:02:01.369Z,27.78
2022-08-23T17:04:40.021Z,27.74
2022-08-23T17:07:09.250Z,27.75
2022-08-23T17:09:38.499Z,27.72
2022-08-23T17:12:08.107Z,27.72
2022-08-23T17:14:37.450Z,27.68
2022-08-23T17:17:08.078Z,27.59
2022-08-23T17:19:37.475Z,27.59
2022-08-23T17:22:06.986Z,27.57
2022-08-23T17:24:37.559Z,27.56
2022-08-23T17:27:08.050Z,27.49
2022-08-23T17:29:37.772Z,27.24
2022-08-23T17:32:09.346Z,27.22
2022-08-23T17:34:39.349Z,27.24
2022-08-23T17:37:18.001Z,27.06
2022-08-23T17:39:48.168Z,26.84
2022-08-23T17:42:18.185Z,26.98
2022-08-23T17:44:47.491Z,26.92
2022-08-23T17:47:19.839Z,26.71
2022-08-23T17:49:50.427Z,26.78
2022-08-23T17:52:19.923Z,26.55
2022-08-23T17:54:49.238Z,26.51
2022-08-23T17:57:18.751Z,26.57
2022-08-23T17:59:48.384Z,26.43
2022-08-23T18:02:20.797Z,26.52
2022-08-23T18:04:50.150Z,26.52
2022-08-23T18:07:21.899Z,26.36
2022-08-23T18:09:51.385Z,26.36
2022-08-23T18:12:20.693Z,26.23
2022-08-23T18:14:49.929Z,26.19
2022-08-23T18:17:20.605Z,26.19
2022-08-23T18:19:49.943Z,26.20
2022-08-23T18:22:20.244Z,26.14
2022-08-23T18:24:49.472Z,26.10
2022-08-23T18:27:47.840Z,25.93
2022-08-23T18:30:17.532Z,25.83
2022-08-23T18:32:48.882Z,25.75
2022-08-23T18:35:18.565Z,25.72
2022-08-23T18:37:48.023Z,25.57
2022-08-23T18:40:17.358Z,25.69
2022-08-23T18:42:46.672Z,25.67
2022-08-23T18:45:16.039Z,25.57
2022-08-23T18:47:45.869Z,25.61
2022-08-23T18:50:17.422Z,25.57
2022-08-23T18:52:46.775Z,25.60
2022-08-23T18:55:17.682Z,25.52
2022-08-23T18:57:47.690Z,25.47
2022-08-23T19:00:17.262Z,25.43
2022-08-23T19:02:49.240Z,25.43
2022-08-23T19:05:20.051Z,25.41
2022-08-23T19:07:49.938Z,25.39
2022-08-23T19:10:21.196Z,25.39
2022-08-23T19:13:02.472Z,25.25
2022-08-23T19:15:34.126Z,25.08
2022-08-23T19:18:05.593Z,25.17
2022-08-23T19:20:37.402Z,25.09
2022-08-23T19:23:07.649Z,24.93
2022-08-23T19:25:41.197Z,25.09
2022-08-23T19:28:14.836Z,25.04
2022-08-23T19:30:44.619Z,24.96
2022-08-23T19:33:14.203Z,24.87
2022-08-23T19:35:45.575Z,24.69
2022-08-23T19:38:17.259Z,24.77
2022-08-23T19:40:54.634Z,24.64
2022-08-23T19:43:24.434Z,24.61
2022-08-23T19:45:54.893Z,24.61
2022-08-23T19:48:24.564Z,24.60
2022-08-23T19:50:58.132Z,24.59
2022-08-23T19:53:28.035Z,24.60
2022-08-23T19:55:57.425Z,24.58
2022-08-23T19:58:26.667Z,24.57
2022-08-23T20:00:56.186Z,24.49
2022-08-23T20:03:26.560Z,24.46
2022-08-23T20:05:58.980Z,24.42
2022-08-23T20:08:28.816Z,24.44
2022-08-23T20:10:59.674Z,24.49
2022-08-23T20:13:29.510Z,24.49
2022-08-23T20:15:58.871Z,24.46
2022-08-23T20:18:28.279Z,24.42
2022-08-23T20:21:00.833Z,24.16
2022-08-23T20:23:46.950Z,24.39
2022-08-23T20:26:16.527Z,24.36
2022-08-23T20:28:59.113Z,24.38
2022-08-23T20:31:36.832Z,24.41
2022-08-23T20:34:09.366Z,24.36
2022-08-23T20:36:40.564Z,24.38
2022-08-23T20:39:10.112Z,24.23
2022-08-23T20:41:45.130Z,24.28
2022-08-23T20:44:16.432Z,24.31
2022-08-23T20:46:45.754Z,24.31
2022-08-23T20:49:15.842Z,24.24
2022-08-23T20:51:47.079Z,24.11
2022-08-23T20:54:18.933Z,23.98
2022-08-23T20:56:51.546Z,23.91
2022-08-23T20:59:22.181Z,23.92
2022-08-23T21:01:52.252Z,23.91
2022-08-23T21:04:22.665Z,23.81
2022-08-23T21:07:01.473Z,23.69
2022-08-23T21:09:31.055Z,23.78
2022-08-23T21:12:00.361Z,23.74
2022-08-23T21:14:30.060Z,23.62
2022-08-23T21:16:59.452Z,23.66
2022-08-23T21:19:30.099Z,23.64
2022-08-23T21:22:01.189Z,23.60
2022-08-23T21:24:32.270Z,23.39
2022-08-23T21:27:01.668Z,23.40
2022-08-23T21:29:39.078Z,23.35
2022-08-23T21:32:08.702Z,23.25
2022-08-23T21:34:40.657Z,23.27
2022-08-23T21:37:11.496Z,23.34
2022-08-23T21:39:40.852Z,23.27
2022-08-23T21:42:15.052Z,23.12
2022-08-23T21:44:47.927Z,23.15
2022-08-23T21:47:17.026Z,23.19
2022-08-23T21:49:47.251Z,23.14
2022-08-23T21:52:18.080Z,23.11
2022-08-23T21:54:47.910Z,23.03
2022-08-23T21:57:20.040Z,23.03
2022-08-23T21:59:49.580Z,22.96
2022-08-23T22:02:19.400Z,23.05
2022-08-23T22:04:49.408Z,23.03
2022-08-23T22:07:20.141Z,23.03
2022-08-23T22:09:51.542Z,23.05
2022-08-23T22:12:24.928Z,23.01
2022-08-23T22:14:54.633Z,23.11
2022-08-23T22:17:23.877Z,23.11
2022-08-23T22:19:55.177Z,23.16
2022-08-23T22:22:26.458Z,23.19
2022-08-23T22:24:56.032Z,23.22
2022-08-23T22:27:25.303Z,23.24
2022-08-23T22:29:54.535Z,23.22
2022-08-23T22:32:24.598Z,23.24
2022-08-23T22:34:53.862Z,23.29
2022-08-23T22:37:23.799Z,23.29
2022-08-23T22:39:57.358Z,23.29
2022-08-23T22:42:26.661Z,23.29
2022-08-23T22:44:58.477Z,23.26
2022-08-23T22:47:28.003Z,23.26
2022-08-23T22:49:57.955Z,23.22
2022-08-23T22:52:27.070Z,23.19
2022-08-23T22:54:58.159Z,23.15
2022-08-23T22:57:27.373Z,23.21
2022-08-23T22:59:56.660Z,23.12
2022-08-23T23:02:28.093Z,23.12
2022-08-23T23:04:57.443Z,23.06
2022-08-23T23:07:40.542Z,22.92
2022-08-23T23:10:11.720Z,22.78
2022-08-23T23:12:41.523Z,22.61
2022-08-23T23:15:12.102Z,22.46
2022-08-23T23:17:41.468Z,22.34
2022-08-23T23:20:29.383Z,22.23
2022-08-23T23:22:58.673Z,22.10
2022-08-23T23:25:29.294Z,21.97
2022-08-23T23:28:02.298Z,21.83
2022-08-23T23:30:32.715Z,21.63
2022-08-23T23:33:02.314Z,21.42
2022-08-23T23:35:31.604Z,21.32
2022-08-23T23:38:01.116Z,21.23
2022-08-23T23:40:32.736Z,21.08
2022-08-23T23:43:02.141Z,20.94
2022-08-23T23:45:31.968Z,20.81
2022-08-23T23:48:01.394Z,20.71
2022-08-23T23:50:32.524Z,20.55
2022-08-23T23:53:01.664Z,20.46
2022-08-23T23:55:32.455Z,20.32
2022-08-23T23:58:02.281Z,20.30
